Time;durP1;ratioP1;P1;durP2;ratioP2;P2;SDS_P1;SDS_P2;PMS_P1;PMS_P2;Temp;Humidity;BMP_temperature;BMP_pressure;BME280_temperature;BME280_humidity;BME280_pressure;Samples;Min_cycle;Max_cycle;Signal;HPM_P1;HPM_P2
2023/06/11 00:02:15;;;;;;;9.00;7.70;;;;;;;15.85;63.78;100949.52;221706;1237;60433;-74
2023/06/11 00:07:08;;;;;;;7.60;6.90;;;;;;;15.76;63.35;100950.20;221658;1234;67050;-73
2023/06/11 00:12:03;;;;;;;8.10;6.80;;;;;;;15.70;63.05;100952.45;221625;1234;60550;-73
2023/06/11 00:16:56;;;;;;;8.80;6.80;;;;;;;15.66;62.71;100952.10;221605;1237;60577;-73
2023/06/11 00:21:48;;;;;;;7.60;6.70;;;;;;;15.61;62.45;100951.41;221640;1234;60462;-73
2023/06/11 00:26:43;;;;;;;7.10;6.50;;;;;;;15.54;62.21;100952.98;221312;1237;60460;-73
2023/06/11 00:31:35;;;;;;;6.90;6.10;;;;;;;15.48;62.08;100953.67;221613;1234;60913;-73
2023/06/11 00:36:36;;;;;;;7.40;6.50;;;;;;;15.41;62.07;100954.19;221645;1233;60375;-73
2023/06/11 00:41:45;;;;;;;8.50;6.10;;;;;;;15.30;62.16;100954.52;221642;1235;75032;-74
2023/06/11 00:52:36;;;;;;;7.60;5.70;;;;;;;15.11;61.87;100953.97;221114;1237;60523;-73
2023/06/11 00:57:40;;;;;;;5.80;5.20;;;;;;;15.03;61.52;100956.05;221416;1235;61560;-74
2023/06/11 01:03:17;;;;;;;8.30;5.30;;;;;;;14.97;61.47;100961.61;221322;1233;60465;-73
2023/06/11 01:08:35;;;;;;;10.30;5.60;;;;;;;14.91;61.33;100958.11;220208;1241;73586;-74
2023/06/11 01:13:31;;;;;;;9.80;5.00;;;;;;;14.84;61.02;100955.65;220142;1240;73548;-74
2023/06/11 01:18:50;;;;;;;8.10;5.80;;;;;;;14.76;61.01;100954.05;220103;1244;60581;-73
2023/06/11 01:29:46;;;;;;;8.10;5.40;;;;;;;14.61;60.46;100971.42;219956;1240;60907;-73
2023/06/11 01:34:51;;;;;;;6.70;4.10;;;;;;;14.53;60.13;100973.81;220115;1240;74925;-73
2023/06/11 01:40:13;;;;;;;5.30;4.50;;;;;;;14.48;60.01;100975.88;220263;1240;71046;-74
2023/06/11 01:51:10;;;;;;;11.40;6.90;;;;;;;14.37;59.32;100989.77;220971;1234;66911;-74
2023/06/11 02:07:43;;;;;;;5.90;3.60;;;;;;;14.17;59.11;100996.61;221153;1233;73696;-73
2023/06/11 02:13:35;;;;;;;5.10;4.00;;;;;;;14.07;59.00;101000.20;221294;1237;61262;-74
2023/06/11 02:19:23;;;;;;;4.00;2.90;;;;;;;14.00;58.71;101006.61;219894;1242;65512;-73
2023/06/11 02:24:57;;;;;;;4.70;3.30;;;;;;;13.93;58.80;101013.70;220203;1242;60459;-74
2023/06/11 02:48:48;;;;;;;3.90;3.50;;;;;;;13.69;58.39;101027.96;219296;1245;66421;-73
2023/06/11 02:59:36;;;;;;;7.70;3.90;;;;;;;13.67;57.90;101034.73;218512;1245;75697;-73
2023/06/11 03:04:44;;;;;;;6.70;3.20;;;;;;;13.67;57.88;101038.91;219274;1245;71461;-72
2023/06/11 03:10:04;;;;;;;5.10;3.10;;;;;;;13.74;58.22;101039.51;219317;1245;61447;-73
2023/06/11 03:16:05;;;;;;;5.90;3.70;;;;;;;14.23;57.54;101046.52;219267;1245;67577;-73
2023/06/11 03:21:17;;;;;;;7.20;3.20;;;;;;;14.84;57.02;101046.92;219225;1245;60901;-73
2023/06/11 03:26:19;;;;;;;3.30;2.60;;;;;;;15.68;56.12;101048.04;220411;1240;75955;-73
2023/06/11 03:37:01;;;;;;;5.80;3.60;;;;;;;16.81;53.43;101057.77;221503;1237;60446;-73
2023/06/11 03:48:02;;;;;;;;;;;;;;;;;;;;;
2023/06/11 03:53:05;;;;;;;9.50;3.30;;;;;;;15.49;53.63;101066.88;220382;1240;73564;-72
2023/06/11 03:58:24;;;;;;;3.20;2.90;;;;;;;15.13;54.03;101073.05;220341;1240;73906;-72
2023/06/11 04:03:18;;;;;;;8.20;3.30;;;;;;;14.91;54.17;101080.28;220394;1239;60623;-73
2023/06/11 04:08:46;;;;;;;4.40;3.00;;;;;;;14.76;54.53;101084.39;220349;1240;66319;-73
2023/06/11 04:19:25;;;;;;;3.60;2.90;;;;;;;14.65;55.07;101092.35;221337;1234;74593;-73
2023/06/11 04:25:16;;;;;;;4.60;3.10;;;;;;;14.69;54.93;101094.46;221542;1233;71514;-74
2023/06/11 04:30:16;;;;;;;3.70;2.90;;;;;;;14.72;54.97;101094.67;221472;1235;60516;-72
2023/06/11 04:35:19;;;;;;;3.40;2.80;;;;;;;14.75;55.01;101095.71;221531;1234;65095;-72
2023/06/11 04:40:35;;;;;;;8.60;4.10;;;;;;;14.80;54.96;101098.03;221481;1234;60533;-73
2023/06/11 04:45:28;;;;;;;3.40;3.10;;;;;;;14.84;55.36;101100.67;221526;1233;71340;-73
2023/06/11 04:50:21;;;;;;;3.50;3.00;;;;;;;14.89;54.98;101102.44;221518;1234;72117;-73
2023/06/11 04:55:24;;;;;;;3.20;2.80;;;;;;;14.97;54.64;101103.89;221359;1234;61040;-73
2023/06/11 05:00:31;;;;;;;4.50;2.80;;;;;;;15.06;54.70;101104.98;221494;1234;66928;-73
2023/06/11 05:05:27;;;;;;;4.90;3.10;;;;;;;15.15;54.50;101109.38;221492;1237;60377;-73
2023/06/11 05:10:26;;;;;;;4.30;2.90;;;;;;;15.26;54.25;101112.73;221236;1234;74121;-73
2023/06/11 05:15:26;;;;;;;4.20;2.90;;;;;;;15.36;53.99;101118.36;221531;1234;60516;-73
2023/06/11 05:25:35;;;;;;;2.60;2.40;;;;;;;15.63;53.38;101115.30;221362;1234;67012;-73
2023/06/11 05:30:45;;;;;;;5.40;3.00;;;;;;;15.83;53.33;101117.99;221460;1234;60455;-73
2023/06/11 05:35:56;;;;;;;3.60;3.00;;;;;;;15.98;52.81;101119.41;221512;1237;73013;-73
2023/06/11 05:40:56;;;;;;;3.40;2.90;;;;;;;16.40;52.12;101120.46;221334;1235;73484;-73
2023/06/11 05:46:00;;;;;;;2.80;2.60;;;;;;;16.78;52.06;101118.51;221526;1234;60404;-72
2023/06/11 05:50:52;;;;;;;2.80;2.40;;;;;;;17.59;50.85;101116.98;221520;1237;65571;-72
2023/06/11 05:55:45;;;;;;;5.90;2.60;;;;;;;17.81;50.64;101121.06;221352;1234;60556;-73
2023/06/11 06:00:37;;;;;;;2.90;2.50;;;;;;;17.63;50.26;101124.14;221525;1234;60474;-73
2023/06/11 06:05:41;;;;;;;4.20;2.40;;;;;;;17.46;50.12;101125.99;221338;1237;60434;-73
2023/06/11 06:10:33;;;;;;;4.30;3.60;;;;;;;17.39;50.30;101123.39;221577;1234;60631;-73
2023/06/11 06:15:30;;;;;;;6.40;2.50;;;;;;;17.45;49.92;101127.56;221519;1235;64608;-72
2023/06/11 06:20:32;;;;;;;3.20;2.60;;;;;;;17.52;49.82;101126.14;221450;1234;60430;-73
2023/06/11 06:25:31;;;;;;;2.90;2.20;;;;;;;17.76;49.63;101127.05;221518;1233;73643;-73
2023/06/11 06:30:28;;;;;;;5.30;2.40;;;;;;;18.44;48.58;101127.26;221375;1234;73643;-73
2023/06/11 06:35:26;;;;;;;4.30;2.80;;;;;;;18.86;47.71;101129.16;221516;1237;60455;-73
2023/06/11 06:40:25;;;;;;;4.00;2.40;;;;;;;19.27;47.27;101126.58;221292;1237;67431;-72
2023/06/11 06:45:17;;;;;;;5.90;2.80;;;;;;;19.43;47.01;101121.81;221440;1237;60446;-72
2023/06/11 06:50:12;;;;;;;3.60;2.50;;;;;;;19.46;46.92;101123.53;221314;1237;60483;-73
2023/06/11 06:55:07;;;;;;;5.10;3.10;;;;;;;20.46;45.27;101123.21;221425;1234;72466;-73
2023/06/11 07:00:05;;;;;;;;;;;;;;;21.27;44.17;101119.29;221447;1237;60449;-73
2023/06/11 07:04:57;;;;;;;6.60;2.60;;;;;;;21.22;44.06;101120.61;221337;1234;65523;-73
2023/06/11 07:09:49;;;;;;;5.20;3.40;;;;;;;20.79;43.80;101126.04;221365;1234;60411;-73
2023/06/11 07:14:41;;;;;;;3.50;2.40;;;;;;;20.97;43.61;101127.64;221418;1234;60526;-72
2023/06/11 07:19:33;;;;;;;3.30;2.70;;;;;;;20.97;42.99;101125.87;221352;1234;60491;-73
2023/06/11 07:24:39;;;;;;;4.00;2.40;;;;;;;21.02;42.18;101126.48;221409;1234;74226;-73
2023/06/11 07:29:32;;;;;;;2.70;2.50;;;;;;;21.65;42.04;101121.13;221155;1234;70413;-72
2023/06/11 07:34:24;;;;;;;3.80;2.30;;;;;;;22.72;40.37;101123.25;221385;1237;60515;-73
2023/06/11 07:39:16;;;;;;;2.90;2.40;;;;;;;25.55;37.21;101117.15;221544;1234;60449;-73
2023/06/11 07:44:08;;;;;;;4.60;3.20;;;;;;;29.28;33.41;101110.98;221529;1234;60478;-74
2023/06/11 07:49:00;;;;;;;3.30;2.50;;;;;;;31.77;30.81;101117.21;221622;1234;60522;-73
2023/06/11 07:53:56;;;;;;;4.90;2.70;;;;;;;33.54;28.54;101112.55;221421;1234;60453;-73
2023/06/11 07:58:48;;;;;;;2.90;2.50;;;;;;;34.06;26.36;101110.20;221544;1237;74830;-73
2023/06/11 08:03:42;;;;;;;4.90;2.80;;;;;;;34.46;25.89;101109.08;221576;1234;60568;-74
2023/06/11 08:08:33;;;;;;;3.00;2.60;;;;;;;33.41;26.27;101116.67;221104;1233;60484;-73
2023/06/11 08:13:25;;;;;;;4.20;2.60;;;;;;;31.34;26.18;101113.73;221455;1234;60464;-73
2023/06/11 08:18:16;;;;;;;2.50;2.30;;;;;;;31.46;26.23;101121.15;221395;1237;60544;-73
2023/06/11 08:23:12;;;;;;;4.40;3.10;;;;;;;33.83;24.77;101117.59;221610;1234;66857;-73
2023/06/11 08:28:04;;;;;;;5.30;2.50;;;;;;;35.20;23.46;101115.89;221492;1234;60395;-75
2023/06/11 08:32:55;;;;;;;4.30;3.10;;;;;;;35.96;22.55;101110.58;221484;1234;60447;-74
2023/06/11 08:37:48;;;;;;;4.90;2.70;;;;;;;34.99;22.48;101113.95;221566;1237;60415;-74
2023/06/11 08:42:42;;;;;;;5.30;2.70;;;;;;;33.75;22.93;101110.25;221505;1237;60446;-74
2023/06/11 08:47:39;;;;;;;5.20;2.40;;;;;;;33.11;22.64;101107.07;221341;1237;71066;-73
2023/06/11 08:52:34;;;;;;;5.90;3.10;;;;;;;33.58;22.51;101098.82;221496;1237;60432;-74
2023/06/11 08:57:25;;;;;;;;;;;;;;;34.92;22.46;101094.52;221470;1233;67654;-74
2023/06/11 09:02:17;;;;;;;3.40;2.60;;;;;;;35.30;22.27;101091.85;221472;1234;60529;-74
2023/06/11 09:07:08;;;;;;;5.10;2.80;;;;;;;35.45;22.09;101084.52;221354;1234;60433;-74
2023/06/11 09:12:05;;;;;;;3.20;2.50;;;;;;;33.23;22.88;101083.63;221317;1234;60497;-74
2023/06/11 09:17:01;;;;;;;4.40;2.60;;;;;;;31.00;24.41;101084.71;221399;1234;74556;-74
2023/06/11 09:21:57;;;;;;;3.20;2.90;;;;;;;29.18;24.71;101090.70;221062;1237;72034;-73
2023/06/11 09:26:53;;;;;;;;;;;;;;;28.46;25.54;101085.24;221385;1234;60486;-74
2023/06/11 09:32:01;;;;;;;2.70;2.50;;;;;;;31.21;24.07;101076.73;221346;1234;67035;-74
2023/06/11 09:37:00;;;;;;;6.20;3.20;;;;;;;32.38;23.11;101073.70;221266;1234;60430;-74
2023/06/11 09:42:01;;;;;;;3.20;3.00;;;;;;;32.12;22.88;101072.60;221429;1238;73677;-74
2023/06/11 09:46:53;;;;;;;3.90;2.40;;;;;;;33.91;22.60;101067.03;221231;1237;72370;-74
2023/06/11 09:51:50;;;;;;;3.00;2.70;;;;;;;35.02;21.01;101069.63;221600;1234;61063;-74
2023/06/11 09:56:51;;;;;;;2.60;2.10;;;;;;;34.34;20.92;101072.23;221349;1234;67620;-74
2023/06/11 10:01:47;;;;;;;2.60;2.50;;;;;;;35.22;21.10;101066.38;221356;1234;60545;-74
2023/06/11 10:06:49;;;;;;;5.30;3.20;;;;;;;35.37;20.86;101065.91;221381;1234;74600;-74
2023/06/11 10:11:46;;;;;;;6.20;3.00;;;;;;;35.92;20.16;101072.36;221228;1234;72684;-74
2023/06/11 10:16:57;;;;;;;4.90;2.90;;;;;;;34.43;20.88;101070.19;221385;1234;60429;-74
2023/06/11 10:22:24;;;;;;;5.80;3.20;;;;;;;33.59;21.33;101064.02;221366;1234;66045;-74
2023/06/11 10:40:40;;;;;;;5.10;2.80;;;;;;;33.87;21.24;101050.48;219118;1245;71371;-74
2023/06/11 10:51:41;;;;;;;4.00;2.90;;;;;;;35.08;20.90;101041.52;219285;1245;67792;-74
2023/06/11 10:57:05;;;;;;;3.30;3.00;;;;;;;34.78;20.97;101036.23;219303;1245;60636;-74
2023/06/11 11:14:19;;;;;;;3.90;2.90;;;;;;;29.69;24.58;101054.52;220448;1238;60630;-74
2023/06/11 12:10:12;;;;;;;5.20;4.20;;;;;;;27.09;28.18;101039.59;218913;1245;72207;-74
2023/06/11 12:22:10;;;;;;;5.10;3.60;;;;;;;26.45;28.57;101039.50;215973;1257;66752;-74
2023/06/11 12:28:10;;;;;;;3.30;2.90;;;;;;;26.73;28.48;101027.94;217059;1253;60489;-74
2023/06/11 12:54:39;;;;;;;5.80;2.80;;;;;;;27.63;27.18;101022.43;219322;1245;67436;-74
2023/06/11 12:59:58;;;;;;;3.00;2.80;;;;;;;27.93;27.09;101020.10;220026;1240;60234;-74
2023/06/11 13:05:03;;;;;;;4.60;2.90;;;;;;;28.29;27.47;101019.67;220285;1243;74299;-74
2023/06/11 13:22:10;;;;;;;5.30;3.30;;;;;;;27.19;28.09;101013.02;221247;1234;65979;-74
2023/06/11 13:28:06;;;;;;;;;;;;;;;;;;;;;
2023/06/11 13:33:51;;;;;;;5.10;3.00;;;;;;;27.86;27.68;101005.15;221327;1234;73399;-74
2023/06/11 13:39:01;;;;;;;10.80;3.80;;;;;;;28.13;27.63;101014.07;221486;1234;73327;-74
2023/06/11 13:50:36;;;;;;;4.90;3.10;;;;;;;28.37;27.55;101011.41;220167;1243;66735;-74
2023/06/11 14:02:23;;;;;;;2.90;2.70;;;;;;;27.03;28.01;101015.88;220069;1245;73590;-75
2023/06/11 14:13:51;;;;;;;3.10;2.80;;;;;;;26.70;29.47;101002.64;220227;1242;60968;-74
2023/06/11 14:19:44;;;;;;;3.10;2.80;;;;;;;27.37;29.36;101001.14;220796;1235;65694;-75
2023/06/11 14:38:46;;;;;;;;;;;;;;;;;;;;;
2023/06/11 14:43:43;;;;;;;3.80;2.90;;;;;;;26.93;29.80;101014.58;219679;1246;60476;-74
2023/06/11 14:55:57;;;;;;;4.00;3.40;;;;;;;27.48;29.54;101010.39;213660;1252;60636;-75
2023/06/11 15:00:54;;;;;;;3.30;2.40;;;;;;;27.41;29.12;101002.20;218838;1245;68101;-75
2023/06/11 19:56:33;;;;;;;11.20;5.20;;;;;;;17.36;48.15;101120.61;215675;1261;71785;-74
2023/06/11 20:01:56;;;;;;;8.00;5.40;;;;;;;17.20;48.69;101122.60;216830;1257;60661;-73
2023/06/11 20:07:32;;;;;;;9.30;6.70;;;;;;;17.07;49.12;101132.81;217452;1254;66100;-73
2023/06/11 20:13:18;;;;;;;15.60;10.40;;;;;;;16.90;49.81;101132.86;217757;1251;60668;-73
2023/06/11 20:25:24;;;;;;;;;;;;;;;;;;;;;
2023/06/11 20:51:26;;;;;;;12.20;6.90;;;;;;;15.71;52.62;101127.56;219977;1244;74045;-74
2023/06/11 21:03:29;;;;;;;10.80;6.50;;;;;;;15.43;54.29;101134.45;219672;1241;62129;-73
2023/06/11 21:33:53;;;;;;;12.10;5.60;;;;;;;14.82;55.77;101143.05;219431;1244;60544;-73
2023/06/11 21:57:55;;;;;;;;;;;;;;;;;;;;;
2023/06/11 22:03:20;;;;;;;;;;;;;;;;;;;;;
2023/06/11 22:09:48;;;;;;;;;;;;;;;;;;;;;
2023/06/11 22:21:37;;;;;;;6.20;5.60;;;;;;;13.93;57.98;101127.48;219317;1241;74244;-72
2023/06/11 22:48:12;;;;;;;;;;;;;;;;;;;;;
2023/06/11 23:27:21;;;;;;;11.70;5.30;;;;;;;12.95;60.68;101123.20;215493;1266;74261;-73
